createdAt,value
2022-08-17T00:01:31.457Z,75768.03
2022-08-17T00:04:19.332Z,75764.06
2022-08-17T00:06:49.083Z,75770.03
2022-08-17T00:09:18.792Z,75760.09
2022-08-17T00:12:03.905Z,75756.13
2022-08-17T00:14:35.584Z,75756.13
2022-08-17T00:17:03.828Z,75756.13
2022-08-17T00:19:32.618Z,75762.06
2022-08-17T00:22:32.623Z,75760.09
2022-08-17T00:24:49.764Z,75764.06
2022-08-17T00:27:16.284Z,75777.97
2022-08-17T00:29:45.512Z,75787.91
2022-08-17T00:33:14.163Z,75797.84
2022-08-17T00:35:06.101Z,75803.78
2022-08-17T00:37:32.684Z,75803.78
2022-08-17T00:39:59.307Z,75797.84
2022-08-17T00:42:30.790Z,75797.84
2022-08-17T00:44:58.126Z,75795.84
2022-08-17T00:47:24.836Z,75797.84
2022-08-17T00:49:51.815Z,75799.81
2022-08-17T00:52:23.161Z,75801.81
2022-08-17T00:54:54.352Z,75815.72
2022-08-17T00:57:39.321Z,75831.59
2022-08-17T01:00:14.116Z,75833.59
2022-08-17T01:02:44.067Z,75833.59
2022-08-17T01:05:20.682Z,75827.63
2022-08-17T01:07:51.015Z,75829.63
2022-08-17T01:10:58.841Z,75837.56
2022-08-17T01:13:09.677Z,75845.50
2022-08-17T01:15:38.759Z,75843.53
2022-08-17T01:18:08.750Z,75839.56
2022-08-17T01:20:48.272Z,75855.44
2022-08-17T01:23:18.534Z,75871.34
2022-08-17T01:25:56.564Z,75877.31
2022-08-17T01:28:52.716Z,75871.34
2022-08-17T01:31:13.272Z,75875.31
2022-08-17T01:33:40.492Z,75869.34
2022-08-17T01:36:07.987Z,75879.28
2022-08-17T01:38:35.867Z,75879.28
2022-08-17T01:41:07.928Z,75879.28
2022-08-17T01:44:02.540Z,75883.25
2022-08-17T01:46:34.001Z,75871.34
2022-08-17T01:49:01.464Z,75873.31
2022-08-17T01:51:33.509Z,75881.28
2022-08-17T01:54:05.306Z,75881.28
2022-08-17T01:56:33.144Z,75877.31
2022-08-17T01:58:59.915Z,75879.28
2022-08-17T02:01:31.728Z,75873.31
2022-08-17T02:04:00.431Z,75867.38
2022-08-17T02:06:53.764Z,75873.31
2022-08-17T02:09:25.396Z,75879.28
2022-08-17T02:11:53.390Z,75881.28
2022-08-17T02:14:21.027Z,75873.31
2022-08-17T02:16:47.537Z,75887.22
2022-08-17T02:19:16.156Z,75879.28
2022-08-17T02:21:46.155Z,75887.22
2022-08-17T02:24:58.812Z,75891.22
2022-08-17T02:27:07.639Z,75895.19
2022-08-17T02:29:34.282Z,75897.16
2022-08-17T02:32:01.861Z,75897.16
2022-08-17T02:34:28.968Z,75893.19
2022-08-17T02:36:55.911Z,75895.19
2022-08-17T02:39:22.431Z,75889.22
2022-08-17T02:41:48.996Z,75883.25
2022-08-17T02:44:38.975Z,75869.34
2022-08-17T02:47:02.194Z,75877.31
2022-08-17T02:49:28.824Z,75881.28
2022-08-17T02:51:57.117Z,75877.31
2022-08-17T02:54:39.672Z,75869.34
2022-08-17T02:57:09.266Z,75879.28
2022-08-17T02:59:35.743Z,75883.25
2022-08-17T03:02:07.552Z,75887.22
2022-08-17T03:04:35.170Z,75891.22
2022-08-17T03:07:02.817Z,75889.22
2022-08-17T03:09:29.380Z,75891.22
2022-08-17T03:12:03.455Z,75905.13
2022-08-17T03:14:32.253Z,75909.09
2022-08-17T03:16:59.247Z,75909.09
2022-08-17T03:19:25.945Z,75911.06
2022-08-17T03:21:55.135Z,75928.97
2022-08-17T03:24:26.805Z,75921.00
2022-08-17T03:26:55.736Z,75936.91
2022-08-17T03:29:22.395Z,75934.91
2022-08-17T03:31:50.182Z,75940.88
2022-08-17T03:34:17.287Z,75952.81
2022-08-17T03:36:44.392Z,75936.91
2022-08-17T03:39:10.931Z,75930.94
2022-08-17T03:41:39.432Z,75932.94
2022-08-17T03:44:06.072Z,75944.84
2022-08-17T03:46:51.176Z,75940.88
2022-08-17T03:49:36.031Z,75946.84
2022-08-17T03:52:21.470Z,75944.84
2022-08-17T03:55:06.493Z,75942.88
2022-08-17T03:57:33.076Z,75946.84
2022-08-17T03:59:59.881Z,75948.81
2022-08-17T04:02:31.140Z,75952.81
2022-08-17T04:04:58.667Z,75944.84
2022-08-17T04:07:28.227Z,75946.84
2022-08-17T04:09:54.748Z,75948.81
2022-08-17T04:12:23.572Z,75944.84
2022-08-17T04:14:53.540Z,75946.84
2022-08-17T04:17:26.221Z,75934.91
2022-08-17T04:19:53.638Z,75932.94
2022-08-17T04:22:31.130Z,75944.84
2022-08-17T04:25:01.418Z,75946.84
2022-08-17T04:27:27.916Z,75950.81
2022-08-17T04:29:55.957Z,75954.78
2022-08-17T04:32:25.161Z,75952.81
2022-08-17T04:35:09.853Z,75950.81
2022-08-17T04:37:36.352Z,75948.81
2022-08-17T04:40:22.650Z,75944.84
2022-08-17T04:43:10.630Z,75928.97
2022-08-17T04:45:55.266Z,75923.00
2022-08-17T04:48:34.749Z,75919.03
2022-08-17T04:51:09.921Z,75909.09
2022-08-17T04:53:37.976Z,75907.09
2022-08-17T04:56:04.943Z,75907.09
2022-08-17T04:58:31.649Z,75893.19
2022-08-17T05:00:58.329Z,75883.25
2022-08-17T05:03:24.938Z,75875.31
2022-08-17T05:05:51.512Z,75885.25
2022-08-17T05:08:19.561Z,75889.22
2022-08-17T05:10:47.270Z,75905.13
2022-08-17T05:13:21.636Z,75907.09
2022-08-17T05:15:50.168Z,75887.22
2022-08-17T05:18:17.535Z,75881.28
2022-08-17T05:20:44.601Z,75871.34
2022-08-17T05:23:13.755Z,75863.41
2022-08-17T05:25:47.328Z,75855.44
2022-08-17T05:28:16.173Z,75861.41
2022-08-17T05:30:44.047Z,75863.41
2022-08-17T05:33:16.827Z,75849.50
2022-08-17T05:35:47.773Z,75839.56
2022-08-17T05:38:16.348Z,75825.66
2022-08-17T05:40:44.113Z,75807.75
2022-08-17T05:43:16.957Z,75779.94
2022-08-17T05:45:56.446Z,75738.22
2022-08-17T05:48:35.511Z,75710.41
2022-08-17T05:51:15.011Z,75684.59
2022-08-17T05:54:06.596Z,75648.84
2022-08-17T05:57:00.014Z,75625.00
2022-08-17T05:59:35.429Z,75619.03
2022-08-17T06:02:16.276Z,75609.09
2022-08-17T06:05:03.965Z,75607.13
2022-08-17T06:07:49.769Z,75593.22
2022-08-17T06:10:40.531Z,75581.28
2022-08-17T06:13:36.630Z,75571.34
2022-08-17T06:16:32.918Z,75565.41
2022-08-17T06:19:06.143Z,75559.44
2022-08-17T06:21:39.850Z,75553.47
2022-08-17T06:24:21.600Z,75547.50
2022-08-17T06:26:48.864Z,75543.53
2022-08-17T06:29:49.602Z,75535.59
2022-08-17T06:32:17.230Z,75517.72
2022-08-17T06:34:46.011Z,75517.72
2022-08-17T06:37:35.632Z,75495.88
2022-08-17T06:40:05.979Z,75495.88
2022-08-17T06:43:02.716Z,75474.00
2022-08-17T06:45:49.468Z,75454.16
2022-08-17T06:48:42.682Z,75468.06
2022-08-17T06:51:30.091Z,75468.06
2022-08-17T06:54:19.958Z,75474.00
2022-08-17T06:57:05.243Z,75446.19
2022-08-17T06:59:55.777Z,75436.28
2022-08-17T07:02:52.249Z,75426.34
2022-08-17T07:05:22.364Z,75408.47
2022-08-17T07:08:35.300Z,75382.63
2022-08-17T07:11:28.178Z,75382.63
2022-08-17T07:14:27.747Z,75374.69
2022-08-17T07:16:56.736Z,75350.84
2022-08-17T07:19:32.873Z,75344.88
2022-08-17T07:22:25.775Z,75325.03
2022-08-17T07:24:58.607Z,75307.16
2022-08-17T07:27:27.638Z,75307.16
2022-08-17T07:30:19.379Z,75297.22
2022-08-17T07:32:57.350Z,75277.34
2022-08-17T07:35:37.541Z,75261.47
2022-08-17T07:38:24.638Z,75233.66
2022-08-17T07:41:02.827Z,75217.75
2022-08-17T07:43:31.931Z,75195.91
2022-08-17T07:46:37.300Z,75172.06
2022-08-17T07:49:03.757Z,75148.22
2022-08-17T07:51:44.473Z,75130.34
2022-08-17T07:54:23.111Z,75106.53
2022-08-17T07:57:00.329Z,75086.66
2022-08-17T07:59:40.765Z,75076.72
2022-08-17T08:02:31.696Z,75048.91
2022-08-17T08:05:02.344Z,75011.19
2022-08-17T08:07:34.948Z,74999.25
2022-08-17T08:10:38.475Z,74967.47
2022-08-17T08:13:22.358Z,74943.66
2022-08-17T08:15:55.409Z,74937.69
2022-08-17T08:18:38.649Z,74921.78
2022-08-17T08:21:18.366Z,74933.72
2022-08-17T08:23:50.344Z,74945.63
2022-08-17T08:26:41.384Z,74929.75
2022-08-17T08:29:39.637Z,74895.97
2022-08-17T08:32:21.068Z,74872.13
2022-08-17T08:35:08.532Z,74844.34
2022-08-17T08:37:59.421Z,74828.44
2022-08-17T08:40:35.034Z,74812.56
2022-08-17T08:43:36.250Z,74790.72
2022-08-17T08:46:11.501Z,74754.97
2022-08-17T08:49:09.967Z,74792.69
2022-08-17T08:52:08.730Z,74794.69
2022-08-17T08:54:48.270Z,74780.78
2022-08-17T08:57:29.400Z,74758.94
2022-08-17T09:00:02.501Z,74743.03
2022-08-17T09:02:41.373Z,74715.25
2022-08-17T09:05:16.980Z,74703.31
2022-08-17T09:08:03.329Z,74681.47
2022-08-17T09:11:02.475Z,74695.38
2022-08-17T09:13:39.489Z,74691.41
2022-08-17T09:16:30.632Z,74679.47
2022-08-17T09:19:18.919Z,74653.66
2022-08-17T09:21:48.996Z,74649.69
2022-08-17T09:24:28.349Z,74647.72
2022-08-17T09:27:02.452Z,74629.84
2022-08-17T09:29:35.185Z,74623.88
2022-08-17T09:32:10.627Z,74608.00
2022-08-17T09:34:44.549Z,74594.09
2022-08-17T09:37:52.140Z,74584.16
2022-08-17T09:40:59.295Z,74572.25
2022-08-17T09:43:50.591Z,74566.28
2022-08-17T09:46:25.735Z,74554.38
2022-08-17T09:48:57.349Z,74564.28
2022-08-17T09:51:40.512Z,74540.47
2022-08-17T09:54:38.113Z,74546.41
2022-08-17T09:57:30.512Z,74530.53
2022-08-17T10:00:15.808Z,74508.69
2022-08-17T10:03:00.585Z,74502.72
2022-08-17T10:06:06.627Z,74484.84
2022-08-17T10:08:43.173Z,74484.84
2022-08-17T10:11:33.425Z,74478.91
2022-08-17T10:14:37.990Z,74468.97
2022-08-17T10:17:23.418Z,74457.06
2022-08-17T10:20:23.376Z,74435.22
2022-08-17T10:23:18.133Z,74445.13
2022-08-17T10:26:14.299Z,74447.13
2022-08-17T10:29:05.712Z,74463.00
2022-08-17T10:31:40.808Z,74427.25
2022-08-17T10:34:45.269Z,74373.66
2022-08-17T10:37:33.304Z,74381.59
2022-08-17T10:40:18.200Z,74397.47
2022-08-17T10:42:59.683Z,74393.50
2022-08-17T10:45:37.386Z,74407.41
2022-08-17T10:48:07.333Z,74433.22
2022-08-17T10:50:56.126Z,74409.38
2022-08-17T10:53:32.052Z,74387.53
2022-08-17T10:56:13.975Z,74385.56
2022-08-17T10:58:56.236Z,74365.69
2022-08-17T11:01:38.188Z,74347.81
2022-08-17T11:04:21.777Z,74347.81
2022-08-17T11:07:19.309Z,74359.75
2022-08-17T11:10:17.369Z,74353.78
2022-08-17T11:13:17.665Z,74357.75
2022-08-17T11:16:02.360Z,74335.91
2022-08-17T11:18:53.929Z,74286.25
2022-08-17T11:21:58.285Z,74264.41
2022-08-17T11:24:37.410Z,74260.44
2022-08-17T11:27:28.800Z,74284.28
2022-08-17T11:30:17.418Z,74272.38
2022-08-17T11:32:47.396Z,74220.72
2022-08-17T11:35:20.578Z,74210.81
2022-08-17T11:38:16.286Z,74218.75
2022-08-17T11:40:55.468Z,74194.91
2022-08-17T11:43:25.566Z,74204.84
2022-08-17T11:46:07.568Z,74220.72
2022-08-17T11:49:18.171Z,74260.44
2022-08-17T11:51:54.568Z,74282.28
2022-08-17T11:54:33.431Z,74324.00
2022-08-17T11:57:26.357Z,74306.13
2022-08-17T12:00:00.023Z,74339.88
2022-08-17T12:02:32.909Z,74324.00
2022-08-17T12:05:14.883Z,74304.13
2022-08-17T12:07:52.636Z,74298.19
2022-08-17T12:10:30.634Z,74270.38
2022-08-17T12:12:59.516Z,74270.38
2022-08-17T12:15:31.329Z,74238.59
2022-08-17T12:17:58.689Z,74230.66
2022-08-17T12:20:32.015Z,74216.75
2022-08-17T12:23:24.439Z,74185.00
2022-08-17T12:25:57.075Z,74186.97
2022-08-17T12:28:33.476Z,74177.03
2022-08-17T12:31:06.813Z,74186.97
2022-08-17T12:33:37.184Z,74194.91
2022-08-17T12:36:08.582Z,74141.31
2022-08-17T12:38:37.961Z,74157.19
2022-08-17T12:41:27.290Z,74131.38
2022-08-17T12:44:09.581Z,74135.34
2022-08-17T12:46:50.100Z,74115.50
2022-08-17T12:49:31.267Z,74099.59
2022-08-17T12:52:26.764Z,74111.50
2022-08-17T12:55:00.741Z,74169.09
2022-08-17T12:57:39.689Z,74143.28
2022-08-17T13:00:34.031Z,74121.44
2022-08-17T13:03:20.199Z,74099.59
2022-08-17T13:05:52.869Z,74095.63
2022-08-17T13:08:25.594Z,74073.78
2022-08-17T13:11:01.652Z,74091.66
2022-08-17T13:13:31.985Z,74081.72
2022-08-17T13:16:03.720Z,74109.53
2022-08-17T13:18:36.267Z,74115.50
2022-08-17T13:21:02.963Z,74113.50
2022-08-17T13:23:31.401Z,74069.81
2022-08-17T13:26:05.187Z,74087.69
2022-08-17T13:28:35.978Z,74087.69
2022-08-17T13:31:24.162Z,74115.50
2022-08-17T13:33:50.770Z,74101.59
2022-08-17T13:36:30.176Z,74107.53
2022-08-17T13:39:25.478Z,74119.47
2022-08-17T13:41:55.462Z,74115.50
2022-08-17T13:44:32.875Z,74103.56
2022-08-17T13:47:00.443Z,74091.66
2022-08-17T13:49:41.974Z,74087.69
2022-08-17T13:52:52.227Z,74069.81
2022-08-17T13:55:22.723Z,74059.88
2022-08-17T13:58:03.951Z,74053.94
2022-08-17T14:00:36.419Z,74059.88
2022-08-17T14:03:04.771Z,74089.66
2022-08-17T14:05:32.066Z,74089.66
2022-08-17T14:08:06.544Z,74121.44
2022-08-17T14:10:36.395Z,74119.47
2022-08-17T14:13:04.115Z,74109.53
2022-08-17T14:15:55.776Z,74147.25
2022-08-17T14:18:19.021Z,74137.31
2022-08-17T14:21:05.693Z,74115.50
2022-08-17T14:23:32.974Z,74111.50
2022-08-17T14:25:59.848Z,74089.66
2022-08-17T14:28:26.395Z,74099.59
2022-08-17T14:30:54.571Z,74103.56
2022-08-17T14:33:22.767Z,74085.69
2022-08-17T14:35:53.618Z,74065.84
2022-08-17T14:38:21.243Z,74055.91
2022-08-17T14:40:48.675Z,74044.00
2022-08-17T14:43:15.903Z,74038.03
2022-08-17T14:45:43.140Z,74069.81
2022-08-17T14:48:10.127Z,74081.72
2022-08-17T14:50:41.615Z,74107.53
2022-08-17T14:53:10.163Z,74107.53
2022-08-17T14:55:39.956Z,74115.50
2022-08-17T14:58:07.604Z,74115.50
2022-08-17T15:00:35.032Z,74069.81
2022-08-17T15:03:02.383Z,74047.97
2022-08-17T15:05:33.570Z,74028.13
2022-08-17T15:08:02.339Z,74042.00
2022-08-17T15:10:30.718Z,74055.91
2022-08-17T15:12:58.265Z,74032.09
2022-08-17T15:15:25.370Z,73984.44
2022-08-17T15:17:51.971Z,73964.56
2022-08-17T15:20:28.098Z,73875.22
2022-08-17T15:22:55.626Z,73825.56
2022-08-17T15:25:23.669Z,73722.34
2022-08-17T15:27:50.578Z,73565.47
2022-08-17T15:30:17.400Z,73648.88
2022-08-17T15:32:50.605Z,73549.59
2022-08-17T15:35:26.896Z,73632.97
2022-08-17T15:37:55.533Z,73611.13
2022-08-17T15:40:22.127Z,73420.53
2022-08-17T15:42:49.017Z,73273.63
2022-08-17T15:45:16.971Z,73194.22
2022-08-17T15:47:43.575Z,73146.56
2022-08-17T15:50:10.735Z,73172.38
2022-08-17T15:52:40.314Z,73196.19
2022-08-17T15:55:10.207Z,73273.63
2022-08-17T15:57:39.436Z,73154.50
2022-08-17T16:00:08.537Z,73200.19
2022-08-17T16:03:46.107Z,73317.31
2022-08-17T16:05:28.568Z,73567.47
2022-08-17T16:07:58.604Z,73710.41
2022-08-17T16:10:35.672Z,73873.22
2022-08-17T16:13:04.377Z,73928.84
2022-08-17T16:15:31.802Z,73978.47
2022-08-17T16:17:58.979Z,74036.06
2022-08-17T16:20:25.964Z,74085.69
2022-08-17T16:22:54.218Z,74107.53
2022-08-17T16:25:49.060Z,74139.31
2022-08-17T16:28:17.499Z,74167.13
2022-08-17T16:30:44.292Z,74175.06
2022-08-17T16:33:15.118Z,74198.88
2022-08-17T16:35:42.132Z,74192.94
2022-08-17T16:38:09.529Z,74188.97
2022-08-17T16:40:38.111Z,74198.88
2022-08-17T16:43:10.464Z,74204.84
2022-08-17T16:45:40.349Z,74202.84
2022-08-17T16:48:08.429Z,74226.69
2022-08-17T16:50:36.046Z,74226.69
2022-08-17T16:53:10.634Z,74238.59
2022-08-17T16:55:38.235Z,74250.53
2022-08-17T16:58:06.511Z,74254.50
2022-08-17T17:00:34.011Z,74268.41
2022-08-17T17:03:19.839Z,74262.44
2022-08-17T17:06:18.765Z,74286.25
2022-08-17T17:09:05.720Z,74300.16
2022-08-17T17:11:42.404Z,74316.06
2022-08-17T17:14:28.415Z,74329.94
2022-08-17T17:17:14.730Z,74345.84
2022-08-17T17:19:52.019Z,74357.75
2022-08-17T17:22:24.507Z,74369.66
2022-08-17T17:25:00.178Z,74387.53
2022-08-17T17:27:30.276Z,74409.38
2022-08-17T17:30:11.108Z,74437.19
2022-08-17T17:32:59.595Z,74455.06
2022-08-17T17:35:33.392Z,74486.84
2022-08-17T17:38:05.368Z,74504.72
2022-08-17T17:40:38.193Z,74524.56
2022-08-17T17:43:34.954Z,74536.50
2022-08-17T17:46:27.242Z,74548.41
2022-08-17T17:48:58.488Z,74570.25
2022-08-17T17:51:54.980Z,74588.13
2022-08-17T17:54:22.772Z,74608.00
2022-08-17T17:56:58.531Z,74623.88
2022-08-17T17:59:51.325Z,74639.75
2022-08-17T18:02:52.725Z,74657.63
2022-08-17T18:05:44.566Z,74665.59
2022-08-17T18:08:34.693Z,74687.44
2022-08-17T18:11:36.232Z,74713.25
2022-08-17T18:14:14.359Z,74723.19
2022-08-17T18:16:42.779Z,74733.13
2022-08-17T18:19:14.966Z,74739.06
2022-08-17T18:21:45.880Z,74752.97
2022-08-17T18:24:13.847Z,74766.88
2022-08-17T18:26:58.877Z,74778.78
2022-08-17T18:29:36.739Z,74796.66
2022-08-17T18:32:16.254Z,74806.59
2022-08-17T18:34:47.590Z,74816.53
2022-08-17T18:37:32.860Z,74826.47
2022-08-17T18:39:59.452Z,74838.38
2022-08-17T18:42:33.993Z,74842.34
2022-08-17T18:45:00.671Z,74858.25
2022-08-17T18:47:29.581Z,74866.19
2022-08-17T18:50:21.645Z,74882.06
2022-08-17T18:52:48.731Z,74890.00
2022-08-17T18:55:21.514Z,74897.97
2022-08-17T18:57:55.560Z,74899.94
2022-08-17T19:00:42.031Z,74907.91
2022-08-17T19:03:23.789Z,74931.72
2022-08-17T19:06:06.517Z,74935.69
2022-08-17T19:08:35.989Z,74939.66
2022-08-17T19:11:08.400Z,74953.56
2022-08-17T19:13:45.154Z,74955.56
2022-08-17T19:16:46.704Z,74977.41
2022-08-17T19:19:43.150Z,74997.28
2022-08-17T19:22:30.665Z,74993.31
2022-08-17T19:25:09.599Z,75013.16
2022-08-17T19:27:57.734Z,75009.19
2022-08-17T19:30:24.907Z,75023.09
2022-08-17T19:32:53.055Z,75027.06
2022-08-17T19:35:22.217Z,75037.00
2022-08-17T19:37:58.592Z,75048.91
2022-08-17T19:40:54.680Z,75058.84
2022-08-17T19:43:51.284Z,75062.81
2022-08-17T19:46:37.664Z,75064.81
2022-08-17T19:49:22.099Z,75078.72
2022-08-17T19:52:31.599Z,75078.72
2022-08-17T19:55:09.006Z,75080.69
2022-08-17T19:57:54.667Z,75082.69
2022-08-17T20:00:21.324Z,75094.59
2022-08-17T20:02:51.617Z,75088.66
2022-08-17T20:05:29.400Z,75088.66
2022-08-17T20:08:08.922Z,75084.66
2022-08-17T20:10:47.281Z,75088.66
2022-08-17T20:13:33.233Z,75106.53
2022-08-17T20:16:00.329Z,75112.47
2022-08-17T20:18:54.900Z,75114.47
2022-08-17T20:21:41.563Z,75124.41
2022-08-17T20:24:21.190Z,75122.41
2022-08-17T20:26:59.312Z,75112.47
2022-08-17T20:30:07.405Z,75116.44
2022-08-17T20:32:58.291Z,75114.47
2022-08-17T20:35:32.699Z,75124.41
2022-08-17T20:38:32.420Z,75120.44
2022-08-17T20:41:04.886Z,75118.44
2022-08-17T20:43:33.860Z,75118.44
2022-08-17T20:46:10.440Z,75116.44
2022-08-17T20:48:42.718Z,75120.44
2022-08-17T20:51:16.768Z,75114.47
2022-08-17T20:53:49.412Z,75124.41
2022-08-17T20:56:43.661Z,75124.41
2022-08-17T20:59:25.685Z,75120.44
2022-08-17T21:02:17.707Z,75116.44
2022-08-17T21:05:43.339Z,75116.44
2022-08-17T21:08:19.133Z,75126.38
2022-08-17T21:10:47.086Z,75124.41
2022-08-17T21:13:13.915Z,75122.41
2022-08-17T21:15:42.104Z,75136.31
2022-08-17T21:18:23.381Z,75140.28
2022-08-17T21:21:21.822Z,75150.22
2022-08-17T21:24:15.443Z,75156.19
2022-08-17T21:26:53.795Z,75162.13
2022-08-17T21:29:31.753Z,75172.06
2022-08-17T21:31:59.276Z,75182.00
2022-08-17T21:34:39.480Z,75182.00
2022-08-17T21:37:29.390Z,75185.97
2022-08-17T21:39:58.432Z,75187.97
2022-08-17T21:42:29.744Z,75191.94
2022-08-17T21:45:00.574Z,75199.88
2022-08-17T21:47:29.966Z,75187.97
2022-08-17T21:50:16.189Z,75201.88
2022-08-17T21:52:43.415Z,75203.84
2022-08-17T21:55:20.483Z,75215.78
2022-08-17T21:57:52.980Z,75219.75
2022-08-17T22:00:35.558Z,75229.69
2022-08-17T22:03:04.439Z,75239.59
2022-08-17T22:05:36.474Z,75245.56
2022-08-17T22:08:16.726Z,75239.59
2022-08-17T22:10:45.581Z,75241.59
2022-08-17T22:13:19.937Z,75241.59
2022-08-17T22:16:28.731Z,75233.66
2022-08-17T22:18:58.870Z,75245.56
2022-08-17T22:21:26.439Z,75253.50
2022-08-17T22:24:06.909Z,75255.50
2022-08-17T22:27:10.488Z,75279.34
2022-08-17T22:29:56.895Z,75273.38
2022-08-17T22:32:41.501Z,75279.34
2022-08-17T22:35:29.872Z,75289.28
2022-08-17T22:37:57.162Z,75289.28
2022-08-17T22:40:30.692Z,75297.22
2022-08-17T22:42:58.924Z,75299.19
2022-08-17T22:45:28.445Z,75305.16
2022-08-17T22:47:58.705Z,75299.19
2022-08-17T22:50:28.692Z,75311.13
2022-08-17T22:53:37.068Z,75323.03
2022-08-17T22:56:23.384Z,75330.97
2022-08-17T22:59:16.774Z,75336.94
2022-08-17T23:01:45.798Z,75340.91
2022-08-17T23:04:32.620Z,75346.88
2022-08-17T23:06:59.308Z,75330.97
2022-08-17T23:09:25.820Z,75340.91
2022-08-17T23:11:58.840Z,75338.94
2022-08-17T23:14:31.529Z,75342.91
2022-08-17T23:16:59.366Z,75358.78
2022-08-17T23:19:27.351Z,75356.81
2022-08-17T23:21:58.036Z,75356.81
2022-08-17T23:24:27.288Z,75368.72
2022-08-17T23:26:57.047Z,75354.81
2022-08-17T23:29:26.209Z,75362.75
2022-08-17T23:31:52.960Z,75362.75
2022-08-17T23:34:19.702Z,75362.75
2022-08-17T23:36:52.410Z,75372.69
2022-08-17T23:39:24.664Z,75372.69
2022-08-17T23:41:55.636Z,75376.69
2022-08-17T23:44:24.986Z,75374.69
2022-08-17T23:46:52.324Z,75366.75
2022-08-17T23:49:19.222Z,75372.69
2022-08-17T23:51:47.632Z,75372.69
2022-08-17T23:54:25.827Z,75380.66
2022-08-17T23:56:52.903Z,75378.66
2022-08-17T23:59:22.492Z,75382.63
